createdAt,value
2017-12-10T00:00:13.460Z,2.80
2017-12-10T00:02:41.074Z,3.20
2017-12-10T00:05:09.444Z,3.47
2017-12-10T00:07:37.039Z,3.75
2017-12-10T00:10:04.936Z,2.70
2017-12-10T00:12:32.510Z,3.25
2017-12-10T00:15:00.193Z,2.60
2017-12-10T00:17:27.747Z,3.50
2017-12-10T00:19:55.465Z,3.30
2017-12-10T00:22:23.113Z,3.33
2017-12-10T00:24:50.730Z,3.87
2017-12-10T00:27:18.364Z,3.10
2017-12-10T00:29:46.022Z,3.22
2017-12-10T00:32:13.711Z,3.72
2017-12-10T00:34:41.325Z,3.55
2017-12-10T00:37:08.953Z,2.90
2017-12-10T00:39:36.595Z,3.20
2017-12-10T00:42:04.155Z,3.87
2017-12-10T00:44:31.817Z,2.90
2017-12-10T00:46:59.485Z,3.58
2017-12-10T00:49:27.155Z,3.20
2017-12-10T00:51:54.821Z,3.53
2017-12-10T00:54:22.514Z,3.22
2017-12-10T00:56:50.156Z,3.15
2017-12-10T00:59:18.547Z,3.25
2017-12-10T01:01:46.893Z,3.25
2017-12-10T01:04:14.708Z,3.20
2017-12-10T01:06:43.154Z,3.17
2017-12-10T01:09:10.787Z,3.58
2017-12-10T01:11:38.398Z,3.40
2017-12-10T01:14:06.854Z,2.85
2017-12-10T01:16:34.469Z,3.28
2017-12-10T01:19:02.050Z,3.15
2017-12-10T01:21:29.665Z,3.08
2017-12-10T01:23:58.083Z,3.17
2017-12-10T01:26:25.639Z,3.70
2017-12-10T01:28:53.298Z,3.10
2017-12-10T01:31:20.956Z,2.83
2017-12-10T01:33:48.515Z,3.55
2017-12-10T01:36:16.159Z,3.65
2017-12-10T01:38:44.577Z,3.42
2017-12-10T01:41:12.289Z,4.50
2017-12-10T01:43:40.694Z,3.42
2017-12-10T01:46:08.324Z,3.50
2017-12-10T01:48:36.014Z,2.80
2017-12-10T01:51:03.699Z,3.08
2017-12-10T01:53:31.334Z,3.15
2017-12-10T01:55:58.948Z,3.37
2017-12-10T01:58:26.565Z,2.70
2017-12-10T02:00:54.208Z,3.62
2017-12-10T02:03:21.853Z,3.22
2017-12-10T02:05:49.643Z,3.35
2017-12-10T02:08:17.330Z,3.60
2017-12-10T02:10:44.896Z,3.53
2017-12-10T02:13:12.520Z,3.37
2017-12-10T02:15:40.202Z,2.75
2017-12-10T02:18:07.896Z,3.17
2017-12-10T02:20:35.532Z,3.35
2017-12-10T02:23:03.208Z,4.47
2017-12-10T02:25:30.777Z,3.62
2017-12-10T02:27:58.533Z,2.92
2017-12-10T02:30:26.201Z,3.10
2017-12-10T02:32:53.789Z,3.33
2017-12-10T02:35:21.458Z,2.87
2017-12-10T02:37:49.883Z,2.53
2017-12-10T02:40:17.633Z,2.78
2017-12-10T02:42:46.047Z,2.70
2017-12-10T02:45:13.810Z,3.47
2017-12-10T02:47:41.586Z,3.05
2017-12-10T02:50:09.168Z,2.75
2017-12-10T02:52:36.858Z,3.40
2017-12-10T02:55:05.186Z,2.97
2017-12-10T02:57:32.952Z,3.05
2017-12-10T03:00:00.617Z,3.50
2017-12-10T03:02:28.204Z,3.17
2017-12-10T03:04:56.693Z,3.28
2017-12-10T03:07:24.368Z,2.70
2017-12-10T03:09:52.086Z,2.85
2017-12-10T03:12:19.867Z,2.83
2017-12-10T03:14:47.533Z,3.42
2017-12-10T03:17:15.254Z,2.97
2017-12-10T03:19:42.917Z,2.95
2017-12-10T03:22:10.787Z,3.35
2017-12-10T03:24:38.442Z,2.95
2017-12-10T03:27:06.261Z,2.35
2017-12-10T03:29:34.701Z,3.65
2017-12-10T03:32:02.293Z,3.30
2017-12-10T03:34:30.187Z,3.33
2017-12-10T03:36:57.838Z,3.12
2017-12-10T03:39:26.242Z,2.72
2017-12-10T03:41:54.909Z,3.05
2017-12-10T03:44:22.595Z,2.92
2017-12-10T03:46:50.378Z,3.05
2017-12-10T03:49:18.112Z,3.15
2017-12-10T03:51:45.856Z,3.45
2017-12-10T03:54:13.627Z,2.72
2017-12-10T03:56:41.439Z,3.58
2017-12-10T03:59:09.086Z,3.10
2017-12-10T04:01:39.394Z,3.10
2017-12-10T04:04:07.001Z,2.80
2017-12-10T04:06:34.666Z,3.25
2017-12-10T04:09:02.326Z,2.92
2017-12-10T04:11:30.013Z,3.10
2017-12-10T04:13:57.655Z,3.33
2017-12-10T04:16:25.284Z,2.75
2017-12-10T04:18:52.987Z,2.80
2017-12-10T04:21:20.577Z,2.83
2017-12-10T04:23:48.139Z,3.25
2017-12-10T04:26:15.834Z,3.05
2017-12-10T04:28:43.437Z,3.12
2017-12-10T04:31:11.063Z,3.08
2017-12-10T04:33:38.624Z,2.87
2017-12-10T04:36:06.260Z,2.30
2017-12-10T04:38:34.681Z,3.10
2017-12-10T04:41:02.254Z,2.60
2017-12-10T04:43:29.909Z,2.70
2017-12-10T04:45:57.531Z,2.30
2017-12-10T04:48:25.965Z,2.67
2017-12-10T04:50:53.607Z,2.85
2017-12-10T04:53:21.488Z,2.70
2017-12-10T04:55:49.421Z,3.12
2017-12-10T04:58:17.133Z,2.20
2017-12-10T05:00:44.780Z,3.08
2017-12-10T05:03:12.925Z,2.70
2017-12-10T05:05:43.403Z,2.50
2017-12-10T05:08:11.255Z,3.15
2017-12-10T05:10:38.984Z,2.50
2017-12-10T05:13:06.617Z,3.10
2017-12-10T05:15:34.362Z,3.00
2017-12-10T05:18:02.066Z,2.05
2017-12-10T05:20:29.685Z,2.20
2017-12-10T05:22:57.348Z,3.22
2017-12-10T05:25:24.895Z,2.20
2017-12-10T05:27:52.590Z,2.67
2017-12-10T05:30:20.261Z,1.95
2017-12-10T05:32:48.630Z,2.97
2017-12-10T05:35:16.244Z,3.65
2017-12-10T05:37:43.884Z,2.15
2017-12-10T05:40:11.614Z,2.40
2017-12-10T05:42:39.493Z,2.53
2017-12-10T05:45:07.247Z,2.85
2017-12-10T05:47:35.635Z,2.50
2017-12-10T05:50:03.323Z,3.08
2017-12-10T05:52:31.022Z,2.47
2017-12-10T05:54:58.819Z,2.60
2017-12-10T05:57:26.730Z,2.53
2017-12-10T05:59:54.328Z,2.08
2017-12-10T06:02:22.065Z,2.90
2017-12-10T06:04:49.697Z,2.42
2017-12-10T06:07:17.336Z,2.55
2017-12-10T06:09:45.009Z,2.53
2017-12-10T06:12:12.758Z,2.58
2017-12-10T06:14:40.424Z,2.60
2017-12-10T06:17:08.181Z,2.90
2017-12-10T06:19:36.080Z,2.60
2017-12-10T06:22:04.468Z,2.10
2017-12-10T06:24:32.110Z,2.35
2017-12-10T06:27:00.007Z,2.90
2017-12-10T06:29:27.654Z,2.05
2017-12-10T06:31:55.597Z,2.53
2017-12-10T06:34:23.455Z,2.60
2017-12-10T06:36:51.009Z,2.70
2017-12-10T06:39:18.625Z,2.25
2017-12-10T06:41:46.206Z,1.90
2017-12-10T06:44:13.926Z,2.60
2017-12-10T06:46:41.569Z,2.28
2017-12-10T06:49:09.199Z,2.37
2017-12-10T06:51:36.804Z,2.22
2017-12-10T06:54:04.466Z,2.12
2017-12-10T06:56:32.815Z,2.70
2017-12-10T06:59:00.598Z,2.15
2017-12-10T07:01:28.358Z,1.85
2017-12-10T07:03:55.929Z,2.33
2017-12-10T07:06:23.653Z,2.50
2017-12-10T07:08:51.480Z,2.53
2017-12-10T07:11:19.952Z,2.97
2017-12-10T07:13:47.662Z,2.45
2017-12-10T07:16:15.467Z,2.42
2017-12-10T07:18:43.202Z,1.92
2017-12-10T07:21:10.788Z,2.45
2017-12-10T07:23:38.402Z,2.75
2017-12-10T07:26:06.141Z,2.33
2017-12-10T07:28:33.773Z,2.90
2017-12-10T07:31:01.486Z,2.65
2017-12-10T07:33:29.094Z,2.55
2017-12-10T07:35:56.839Z,2.60
2017-12-10T07:38:24.461Z,2.40
2017-12-10T07:40:52.835Z,2.40
2017-12-10T07:43:20.561Z,2.05
2017-12-10T07:45:48.151Z,2.40
2017-12-10T07:48:16.654Z,2.47
2017-12-10T07:50:44.429Z,4.18
2017-12-10T07:53:12.082Z,2.62
2017-12-10T07:55:40.470Z,2.78
2017-12-10T07:58:08.438Z,2.42
2017-12-10T08:00:36.204Z,2.75
2017-12-10T08:03:03.804Z,2.58
2017-12-10T08:05:31.486Z,2.55
2017-12-10T08:07:59.998Z,3.40
2017-12-10T08:10:28.485Z,2.50
2017-12-10T08:12:56.250Z,2.25
2017-12-10T08:15:24.002Z,2.25
2017-12-10T08:17:52.494Z,2.47
2017-12-10T08:20:20.139Z,2.58
2017-12-10T08:22:47.837Z,2.95
2017-12-10T08:25:15.406Z,4.20
2017-12-10T08:27:43.226Z,2.55
2017-12-10T08:30:11.003Z,2.53
2017-12-10T08:32:39.371Z,2.75
2017-12-10T08:35:07.849Z,2.70
2017-12-10T08:37:35.533Z,2.90
2017-12-10T08:40:03.179Z,3.45
2017-12-10T08:42:31.675Z,2.58
2017-12-10T08:44:59.376Z,3.40
2017-12-10T08:47:26.988Z,2.70
2017-12-10T08:49:54.736Z,3.20
2017-12-10T08:52:22.297Z,2.60
2017-12-10T08:54:49.897Z,2.90
2017-12-10T08:57:18.254Z,5.20
2017-12-10T08:59:45.816Z,3.03
2017-12-10T09:02:13.573Z,3.80
2017-12-10T09:04:42.013Z,3.40
2017-12-10T09:07:09.587Z,3.42
2017-12-10T09:09:37.285Z,3.65
2017-12-10T09:12:04.906Z,3.05
2017-12-10T09:14:32.500Z,3.90
2017-12-10T09:17:00.903Z,3.28
2017-12-10T09:19:29.383Z,4.35
2017-12-10T09:21:57.022Z,4.43
2017-12-10T09:24:25.370Z,3.25
2017-12-10T09:26:53.000Z,3.08
2017-12-10T09:29:20.625Z,2.97
2017-12-10T09:31:48.389Z,3.62
2017-12-10T09:34:16.149Z,4.37
2017-12-10T09:36:43.802Z,4.05
2017-12-10T09:39:11.400Z,4.18
2017-12-10T09:41:39.215Z,4.18
2017-12-10T09:44:06.818Z,4.18
2017-12-10T09:46:34.413Z,4.57
2017-12-10T09:49:02.159Z,4.50
2017-12-10T09:51:29.780Z,4.37
2017-12-10T09:53:57.435Z,4.85
2017-12-10T09:56:25.050Z,4.00
2017-12-10T09:58:52.752Z,3.62
2017-12-10T10:01:20.537Z,4.60
2017-12-10T10:03:48.093Z,3.67
2017-12-10T10:06:15.734Z,3.95
2017-12-10T10:08:43.382Z,4.20
2017-12-10T10:11:11.270Z,4.00
2017-12-10T10:13:39.762Z,3.78
2017-12-10T10:16:08.288Z,3.28
2017-12-10T10:18:36.645Z,3.55
2017-12-10T10:21:04.405Z,3.30
2017-12-10T10:23:32.093Z,3.25
2017-12-10T10:25:59.737Z,2.90
2017-12-10T10:28:27.380Z,3.80
2017-12-10T10:30:54.999Z,4.15
2017-12-10T10:33:22.586Z,3.15
2017-12-10T10:35:50.153Z,3.37
2017-12-10T10:38:17.963Z,4.05
2017-12-10T10:40:46.287Z,4.00
2017-12-10T10:43:13.961Z,3.55
2017-12-10T10:45:41.548Z,2.70
2017-12-10T10:48:09.157Z,3.85
2017-12-10T10:50:36.855Z,4.22
2017-12-10T10:53:04.739Z,4.22
2017-12-10T10:55:32.404Z,3.90
2017-12-10T10:58:00.035Z,3.65
2017-12-10T11:00:27.718Z,3.53
2017-12-10T11:02:55.477Z,3.92
2017-12-10T11:05:23.125Z,4.68
2017-12-10T11:07:50.744Z,4.40
2017-12-10T11:10:19.126Z,4.25
2017-12-10T11:12:47.550Z,3.30
2017-12-10T11:15:15.359Z,3.90
2017-12-10T11:17:43.044Z,3.72
2017-12-10T11:20:10.977Z,3.30
2017-12-10T11:22:38.836Z,3.17
2017-12-10T11:25:06.717Z,3.55
2017-12-10T11:27:34.611Z,3.70
2017-12-10T11:30:02.408Z,2.85
2017-12-10T11:32:30.005Z,3.10
2017-12-10T11:34:57.612Z,3.00
2017-12-10T11:37:25.401Z,3.15
2017-12-10T11:39:53.265Z,2.80
2017-12-10T11:42:21.130Z,3.15
2017-12-10T11:44:49.009Z,3.15
2017-12-10T11:47:16.694Z,2.62
2017-12-10T11:49:44.262Z,3.78
2017-12-10T11:52:12.875Z,2.90
2017-12-10T11:54:40.455Z,2.60
2017-12-10T11:57:08.231Z,3.65
2017-12-10T11:59:35.869Z,3.03
2017-12-10T12:02:03.474Z,2.45
2017-12-10T12:04:31.110Z,3.60
2017-12-10T12:06:58.987Z,3.00
2017-12-10T12:09:27.483Z,2.25
2017-12-10T12:11:55.266Z,3.15
2017-12-10T12:14:23.729Z,3.25
2017-12-10T12:16:51.405Z,2.53
2017-12-10T12:19:18.998Z,2.80
2017-12-10T12:21:46.728Z,2.92
2017-12-10T12:24:15.224Z,3.50
2017-12-10T12:26:42.908Z,3.03
2017-12-10T12:29:10.766Z,2.58
2017-12-10T12:31:38.597Z,2.55
2017-12-10T12:34:06.330Z,4.85
2017-12-10T12:36:34.022Z,2.40
2017-12-10T12:39:01.687Z,2.97
2017-12-10T12:41:29.449Z,3.12
2017-12-10T12:43:57.166Z,3.20
2017-12-10T12:46:24.762Z,2.75
2017-12-10T12:48:52.519Z,3.10
2017-12-10T12:51:20.158Z,3.15
2017-12-10T12:53:47.714Z,2.95
2017-12-10T12:56:15.542Z,3.20
2017-12-10T12:58:44.004Z,4.10
2017-12-10T13:01:11.634Z,2.37
2017-12-10T13:03:39.414Z,3.37
2017-12-10T13:06:07.123Z,3.05
2017-12-10T13:08:35.026Z,2.75
2017-12-10T13:11:02.799Z,2.45
2017-12-10T13:13:30.723Z,2.78
2017-12-10T13:15:58.406Z,2.15
2017-12-10T13:18:26.780Z,2.60
2017-12-10T13:20:54.443Z,3.15
2017-12-10T13:23:22.781Z,3.30
2017-12-10T13:25:50.559Z,2.70
2017-12-10T13:28:19.156Z,3.28
2017-12-10T13:30:47.057Z,2.55
2017-12-10T13:33:15.801Z,3.22
2017-12-10T13:35:43.428Z,2.65
2017-12-10T13:38:11.085Z,3.03
2017-12-10T13:40:38.698Z,2.50
2017-12-10T13:43:06.418Z,3.05
2017-12-10T13:45:34.027Z,2.40
2017-12-10T13:48:01.687Z,2.37
2017-12-10T13:50:30.484Z,3.50
2017-12-10T13:52:58.192Z,3.03
2017-12-10T13:55:25.829Z,2.78
2017-12-10T13:57:53.523Z,2.87
2017-12-10T14:00:21.119Z,3.00
2017-12-10T14:02:48.722Z,3.50
2017-12-10T14:05:16.381Z,2.80
2017-12-10T14:07:44.298Z,2.70
2017-12-10T14:10:12.017Z,2.87
2017-12-10T14:12:40.509Z,3.10
2017-12-10T14:15:08.136Z,3.15
2017-12-10T14:17:35.852Z,2.58
2017-12-10T14:20:03.493Z,2.05
2017-12-10T14:22:31.053Z,3.42
2017-12-10T14:24:58.687Z,2.85
2017-12-10T14:27:27.013Z,2.78
2017-12-10T14:29:54.673Z,3.03
2017-12-10T14:32:22.230Z,3.08
2017-12-10T14:34:49.804Z,3.55
2017-12-10T14:37:17.403Z,3.62
2017-12-10T14:39:44.968Z,3.42
2017-12-10T14:42:13.296Z,3.70
2017-12-10T14:44:40.920Z,3.55
2017-12-10T14:47:09.239Z,2.75
2017-12-10T14:49:36.831Z,3.33
2017-12-10T14:52:04.549Z,3.80
2017-12-10T14:54:32.133Z,2.92
2017-12-10T14:56:59.732Z,3.45
2017-12-10T14:59:27.323Z,2.90
2017-12-10T15:01:54.922Z,3.40
2017-12-10T15:04:22.475Z,3.22
2017-12-10T15:06:50.092Z,2.92
2017-12-10T15:09:17.638Z,4.15
2017-12-10T15:11:45.986Z,3.55
2017-12-10T15:14:13.537Z,3.80
2017-12-10T15:16:41.128Z,4.10
2017-12-10T15:19:09.461Z,4.12
2017-12-10T15:21:37.069Z,3.50
2017-12-10T15:24:05.442Z,3.40
2017-12-10T15:26:33.006Z,3.85
2017-12-10T15:29:01.366Z,3.70
2017-12-10T15:31:28.922Z,3.42
2017-12-10T15:33:56.542Z,4.45
2017-12-10T15:36:24.169Z,4.90
2017-12-10T15:38:51.737Z,3.53
2017-12-10T15:41:20.105Z,3.28
2017-12-10T15:43:47.693Z,4.70
2017-12-10T15:46:15.285Z,3.40
2017-12-10T15:48:42.897Z,3.97
2017-12-10T15:51:11.257Z,4.20
2017-12-10T15:53:38.849Z,4.40
2017-12-10T15:56:06.413Z,3.90
2017-12-10T15:58:34.008Z,4.40
2017-12-10T16:01:01.553Z,4.35
2017-12-10T16:03:29.149Z,4.28
2017-12-10T16:05:56.705Z,3.40
2017-12-10T16:08:24.254Z,3.55
2017-12-10T16:10:51.861Z,5.37
2017-12-10T16:13:19.421Z,4.62
2017-12-10T16:15:47.781Z,5.75
2017-12-10T16:18:15.338Z,4.97
2017-12-10T16:20:42.934Z,6.53
2017-12-10T16:23:11.240Z,6.75
2017-12-10T16:25:38.849Z,6.40
2017-12-10T16:28:06.426Z,4.90
2017-12-10T16:30:37.816Z,4.40
2017-12-10T16:33:05.434Z,4.35
2017-12-10T16:35:33.785Z,4.70
2017-12-10T16:38:01.382Z,4.25
2017-12-10T16:40:28.998Z,5.30
2017-12-10T16:42:56.577Z,4.60
2017-12-10T16:45:24.927Z,5.47
2017-12-10T16:47:52.537Z,4.78
2017-12-10T16:50:20.119Z,4.45
2017-12-10T16:52:47.717Z,5.47
2017-12-10T16:55:15.266Z,4.87
2017-12-10T16:57:42.868Z,5.12
2017-12-10T17:00:10.563Z,6.28
2017-12-10T17:02:38.178Z,4.57
2017-12-10T17:05:05.790Z,5.30
2017-12-10T17:07:33.364Z,4.25
2017-12-10T17:10:00.990Z,3.80
2017-12-10T17:12:28.648Z,4.75
2017-12-10T17:14:58.764Z,4.15
2017-12-10T17:17:30.410Z,3.60
2017-12-10T17:20:00.547Z,4.00
2017-12-10T17:22:30.550Z,4.20
2017-12-10T17:25:00.479Z,4.15
2017-12-10T17:27:31.545Z,3.53
2017-12-10T17:30:02.154Z,3.67
2017-12-10T17:32:30.664Z,3.70
2017-12-10T17:34:58.232Z,3.33
2017-12-10T17:37:25.873Z,4.22
2017-12-10T17:39:54.286Z,3.85
2017-12-10T17:42:21.890Z,3.20
2017-12-10T17:44:49.525Z,3.58
2017-12-10T17:47:17.220Z,3.72
2017-12-10T17:49:45.656Z,3.60
2017-12-10T17:52:13.465Z,2.50
2017-12-10T17:54:41.268Z,3.05
2017-12-10T17:57:09.037Z,3.05
2017-12-10T17:59:36.710Z,2.50
2017-12-10T18:02:04.429Z,2.92
2017-12-10T18:04:33.361Z,2.60
2017-12-10T18:07:01.062Z,2.22
2017-12-10T18:09:28.682Z,2.58
2017-12-10T18:11:56.341Z,2.47
2017-12-10T18:14:23.911Z,2.67
2017-12-10T18:16:51.840Z,2.40
2017-12-10T18:19:20.172Z,2.30
2017-12-10T18:21:47.776Z,3.50
2017-12-10T18:24:16.100Z,2.05
2017-12-10T18:26:43.681Z,2.50
2017-12-10T18:29:11.270Z,3.15
2017-12-10T18:31:38.827Z,2.45
2017-12-10T18:34:06.426Z,3.05
2017-12-10T18:36:34.000Z,2.78
2017-12-10T18:39:01.625Z,2.85
2017-12-10T18:41:30.007Z,2.95
2017-12-10T18:43:58.481Z,3.00
2017-12-10T18:46:26.864Z,2.80
2017-12-10T18:48:55.229Z,2.70
2017-12-10T18:51:22.798Z,2.47
2017-12-10T18:53:50.353Z,2.53
2017-12-10T18:56:17.950Z,3.12
2017-12-10T18:58:45.573Z,4.10
2017-12-10T19:01:13.195Z,2.62
2017-12-10T19:03:40.757Z,3.30
2017-12-10T19:06:08.401Z,2.87
2017-12-10T19:08:35.998Z,2.65
2017-12-10T19:11:03.555Z,2.60
2017-12-10T19:13:31.175Z,2.30
2017-12-10T19:15:58.785Z,3.62
2017-12-10T19:18:26.349Z,2.37
2017-12-10T19:20:53.937Z,2.92
2017-12-10T19:23:22.294Z,2.90
2017-12-10T19:25:49.915Z,2.25
2017-12-10T19:28:18.228Z,2.40
2017-12-10T19:30:45.860Z,2.58
2017-12-10T19:33:13.458Z,3.58
2017-12-10T19:35:41.928Z,3.20
2017-12-10T19:38:09.528Z,3.05
2017-12-10T19:40:37.094Z,2.60
2017-12-10T19:43:04.654Z,3.17
2017-12-10T19:45:32.262Z,2.60
2017-12-10T19:47:59.885Z,2.35
2017-12-10T19:50:27.485Z,2.80
2017-12-10T19:52:55.059Z,2.70
2017-12-10T19:55:23.448Z,1.70
2017-12-10T19:57:51.084Z,2.20
2017-12-10T20:00:18.696Z,2.33
2017-12-10T20:02:46.241Z,1.95
2017-12-10T20:05:14.575Z,2.08
2017-12-10T20:07:42.171Z,2.20
2017-12-10T20:10:10.562Z,1.98
2017-12-10T20:12:38.893Z,2.22
2017-12-10T20:15:06.492Z,2.58
2017-12-10T20:17:34.056Z,2.58
2017-12-10T20:20:02.419Z,2.03
2017-12-10T20:22:30.027Z,2.30
2017-12-10T20:24:57.629Z,2.33
2017-12-10T20:27:25.286Z,2.30
2017-12-10T20:29:52.896Z,1.65
2017-12-10T20:32:21.231Z,1.87
2017-12-10T20:34:48.873Z,2.35
2017-12-10T20:37:16.472Z,1.90
2017-12-10T20:39:44.036Z,2.30
2017-12-10T20:42:11.661Z,2.08
2017-12-10T20:44:39.237Z,1.85
2017-12-10T20:47:06.796Z,1.92
2017-12-10T20:49:34.411Z,1.80
2017-12-10T20:52:01.972Z,1.90
2017-12-10T20:54:29.560Z,2.08
2017-12-10T20:56:57.267Z,2.03
2017-12-10T20:59:24.810Z,1.58
2017-12-10T21:01:54.487Z,2.20
2017-12-10T21:04:22.095Z,1.90
2017-12-10T21:06:49.753Z,2.00
2017-12-10T21:09:17.268Z,1.77
2017-12-10T21:11:44.863Z,2.65
2017-12-10T21:14:12.426Z,1.70
2017-12-10T21:16:40.017Z,2.05
2017-12-10T21:19:08.353Z,1.60
2017-12-10T21:21:35.971Z,1.50
2017-12-10T21:24:04.329Z,1.42
2017-12-10T21:26:32.672Z,1.70
2017-12-10T21:29:00.287Z,1.70
2017-12-10T21:31:28.596Z,2.08
2017-12-10T21:33:56.154Z,1.80
2017-12-10T21:36:23.756Z,2.30
2017-12-10T21:38:51.366Z,1.30
2017-12-10T21:41:19.702Z,1.40
2017-12-10T21:43:47.260Z,1.65
2017-12-10T21:46:14.879Z,2.10
2017-12-10T21:48:42.436Z,1.77
2017-12-10T21:51:10.009Z,1.83
2017-12-10T21:53:37.612Z,1.80
2017-12-10T21:56:05.947Z,3.05
2017-12-10T21:58:33.513Z,1.45
2017-12-10T22:01:01.116Z,1.90
2017-12-10T22:03:29.482Z,1.60
2017-12-10T22:05:57.071Z,1.62
2017-12-10T22:08:24.649Z,1.42
2017-12-10T22:10:52.253Z,1.77
2017-12-10T22:13:19.812Z,1.60
2017-12-10T22:15:47.409Z,1.70
2017-12-10T22:18:15.032Z,1.60
2017-12-10T22:20:42.581Z,1.50
2017-12-10T22:23:10.218Z,1.50
2017-12-10T22:25:37.786Z,1.30
2017-12-10T22:28:05.365Z,1.50
2017-12-10T22:30:32.950Z,1.30
2017-12-10T22:33:00.557Z,1.33
2017-12-10T22:35:28.102Z,1.25
2017-12-10T22:37:55.675Z,1.10
2017-12-10T22:40:23.310Z,1.20
2017-12-10T22:42:50.910Z,1.20
2017-12-10T22:45:18.513Z,1.00
2017-12-10T22:47:46.065Z,1.42
2017-12-10T22:50:13.658Z,1.20
2017-12-10T22:52:42.034Z,1.10
2017-12-10T22:55:10.396Z,1.65
2017-12-10T22:57:38.733Z,1.42
2017-12-10T23:00:06.318Z,1.42
2017-12-10T23:02:33.903Z,1.40
2017-12-10T23:05:02.239Z,1.77
2017-12-10T23:07:29.858Z,1.35
2017-12-10T23:09:58.186Z,1.83
2017-12-10T23:12:25.796Z,1.48
2017-12-10T23:14:54.159Z,1.40
2017-12-10T23:17:21.741Z,1.52
2017-12-10T23:19:49.349Z,1.62
2017-12-10T23:22:16.952Z,1.50
2017-12-10T23:24:45.312Z,1.30
2017-12-10T23:27:12.910Z,1.50
2017-12-10T23:29:40.464Z,1.10
2017-12-10T23:32:08.061Z,1.37
2017-12-10T23:34:35.652Z,1.10
2017-12-10T23:37:03.222Z,1.10
2017-12-10T23:39:30.837Z,1.20
2017-12-10T23:41:58.467Z,1.27
2017-12-10T23:44:26.055Z,1.15
2017-12-10T23:46:53.649Z,0.98
2017-12-10T23:49:21.208Z,1.10
2017-12-10T23:51:49.749Z,1.05
2017-12-10T23:54:17.327Z,1.10
2017-12-10T23:56:44.908Z,1.10
2017-12-10T23:59:12.481Z,1.40
